createdAt,value
2022-09-21T11:53:34.746Z,1012.00
2022-09-21T11:54:28.471Z,1011.99
2022-09-21T11:56:22.142Z,1011.95
2022-09-21T11:57:21.144Z,1011.97
2022-09-21T11:59:13.261Z,1011.96
2022-09-21T12:02:06.215Z,1011.94
2022-09-21T12:03:05.190Z,1011.94
2022-09-21T12:04:57.112Z,1011.90
2022-09-21T12:07:49.746Z,1011.90
2022-09-21T12:08:48.512Z,1011.90
2022-09-21T12:10:41.165Z,1011.92
2022-09-21T12:13:32.311Z,1011.94
2022-09-21T12:14:32.362Z,1011.95
2022-09-21T12:16:25.059Z,1011.92
2022-09-21T12:17:25.029Z,1011.93
2022-09-21T12:19:16.166Z,1011.93
2022-09-21T12:20:16.191Z,1011.90
2022-09-21T12:22:08.127Z,1011.94
2022-09-21T12:23:08.123Z,1011.91
2022-09-21T12:25:01.411Z,1011.90
2022-09-21T12:26:00.883Z,1011.90
2022-09-21T12:28:00.234Z,1011.89
2022-09-21T12:30:46.201Z,1011.86
2022-09-21T12:33:35.831Z,1011.85
2022-09-21T12:34:35.851Z,1011.84
2022-09-21T12:36:29.025Z,1011.83
2022-09-21T12:39:19.678Z,1011.81
2022-09-21T12:40:19.764Z,1011.80
2022-09-21T12:42:12.377Z,1011.81
2022-09-21T12:43:12.379Z,1011.82
2022-09-21T12:46:05.942Z,1011.84
2022-09-21T12:48:01.242Z,1011.85
2022-09-21T12:48:56.023Z,1011.84
2022-09-21T12:50:47.410Z,1011.86
2022-09-21T12:51:47.416Z,1011.85
2022-09-21T12:53:41.634Z,1011.83
2022-09-21T12:55:40.896Z,1011.81
2022-09-21T12:56:43.157Z,1011.79
2022-09-21T13:01:08.916Z,1011.82
2022-09-21T13:03:48.809Z,1011.82
2022-09-21T13:05:53.829Z,1011.80
2022-09-21T13:10:57.376Z,1011.81
2022-09-21T13:13:37.504Z,1011.75
2022-09-21T13:18:37.016Z,1011.72
2022-09-21T13:20:22.586Z,1011.67
2022-09-21T13:37:29.769Z,1011.68
2022-09-21T13:45:33.129Z,1011.64
2022-09-21T13:51:00.582Z,1011.66
2022-09-21T13:52:33.800Z,1011.64
2022-09-21T13:53:33.019Z,1011.64
2022-09-21T13:54:33.812Z,1011.65
2022-09-21T13:55:33.772Z,1011.62
2022-09-21T13:57:33.852Z,1011.65
2022-09-21T13:59:37.530Z,1011.66
2022-09-21T14:00:35.051Z,1011.61
2022-09-21T14:01:47.188Z,1011.63
2022-09-21T14:02:35.842Z,1011.65
2022-09-21T14:03:55.673Z,1011.64
2022-09-21T14:04:55.683Z,1011.63
2022-09-21T14:05:34.180Z,1011.67
2022-09-21T14:06:38.130Z,1011.63
2022-09-21T14:33:04.764Z,1011.62
2022-09-21T14:37:44.283Z,1011.59
2022-09-21T14:47:07.554Z,1011.59
2022-09-21T14:49:10.191Z,1011.62
2022-09-21T14:50:14.420Z,1011.66
2022-09-21T14:52:12.542Z,1011.65
2022-09-21T14:53:01.350Z,1011.60
2022-09-21T14:54:54.859Z,1011.62
2022-09-21T14:55:53.282Z,1011.62
